Aérodrome :
LOGIN :

S'inscrire | Disclaimer

   EN    FR    IT 

 










Légende :    VFR   VFR Marginal   IFR   IFR Intensif   IFR Très Intensif
Visi : 
Plafond : 
>= 8 km
>= 3000ft
5 à 8 km
1000 à 3000 ft
1500m à 5 km
500 à 1000 ft
800 à 1500m
200 à 500 ft
< 800m
< 200 ft
Symboles :   Orages  Brouillard  Fortes neiges  Fortes précipitations  Vent > 20 kt
SIGMETs :   Divers  Orages  Givrage  Turbulence  Onde Orograph.  Cendres Volcan.







- Altitude de l'aérodrome : 374 ft
- Code IATA : LIS


LPPT - Lisboa Portela

DERNIER METAR :
  • 151630Z 27007KT 240V300 9999 VCSH FEW008 SCT018 17/16 Q1009

METARs EXPIRÉS :
  • 151600Z 29007KT 250V330 2500 -RADZ BR SCT008 SCT013 17/16 Q1009
  • 151530Z 28006KT 230V300 7000 3000SW VCSH SCT009 SCT013 17/16 Q1009
  • 151500Z 28008KT 8000 3500N -RADZ FEW005 BKN013 17/16 Q1008
  • 151430Z 28009KT 5000 -DZ BR SCT008 BKN014 17/15 Q1008
  • 151400Z 27010KT 240V310 9999 VCSH FEW010 BKN015 18/15 Q1008

TAF TAF LPPT
Valide du 15 à 12h jusqu'au 16 à 18h UTC


151100Z 1512/1618 29012KT 9999 SCT015 SCT035
PROB40
TEMPO 1512/1519 5000 -RADZ BR FEW005 BKN015
BECMG 1522/1601 VRB03KT SCT012
TEMPO 1601/1609 BKN008
BECMG 1603/1605 04005KT
PROB30 1605/1608 3000 BR BKN003
BECMG 1615/1617 35008KT FEW035
Pas de NOTAMs connus pour ce terrain.



MET'MAP, la Météo Aéronautique d'un coup d'oeil ! - Copyright ORBIFLY Décembre 2007 - Disclaimer

ORBIFLY MET'MAP TEAM :

Programmation & Développement : Alexandra Zaïnal
Conception & Développement : Baudouin d'Aumeries
Co-Programmation & Développement : Marc-Olivier Méhu
Soutien technique & logistique : Manuel Goepfert

Contact : metmap@orbifly.com




SOURCES & CREDITS :

   NOAA